createdAt,value
2018-02-25T00:01:37.210Z,33.32
2018-02-25T00:04:02.983Z,34.27
2018-02-25T00:06:28.762Z,33.17
2018-02-25T00:08:54.538Z,33.15
2018-02-25T00:11:20.322Z,34.47
2018-02-25T00:13:46.100Z,33.07
2018-02-25T00:16:11.869Z,33.22
2018-02-25T00:18:37.913Z,33.12
2018-02-25T00:21:03.769Z,33.65
2018-02-25T00:23:29.546Z,33.80
2018-02-25T00:25:55.317Z,34.25
2018-02-25T00:28:21.133Z,33.34
2018-02-25T00:30:47.065Z,33.65
2018-02-25T00:33:12.893Z,33.14
2018-02-25T00:35:38.669Z,33.74
2018-02-25T00:38:04.446Z,33.28
2018-02-25T00:40:30.221Z,33.46
2018-02-25T00:42:55.997Z,33.07
2018-02-25T00:45:21.793Z,33.19
2018-02-25T00:47:47.565Z,33.06
2018-02-25T00:50:13.346Z,33.53
2018-02-25T00:52:39.122Z,33.23
2018-02-25T00:55:04.894Z,33.26
2018-02-25T00:57:30.709Z,33.49
2018-02-25T00:59:56.495Z,33.06
2018-02-25T01:02:22.270Z,33.30
2018-02-25T01:04:48.045Z,32.80
2018-02-25T01:07:13.821Z,33.50
2018-02-25T01:09:39.597Z,32.75
2018-02-25T01:12:05.374Z,33.07
2018-02-25T01:14:31.274Z,33.93
2018-02-25T01:16:57.063Z,33.34
2018-02-25T01:19:22.837Z,33.40
2018-02-25T01:21:48.646Z,33.37
2018-02-25T01:24:14.441Z,33.33
2018-02-25T01:26:40.294Z,33.58
2018-02-25T01:29:06.061Z,33.11
2018-02-25T01:31:31.886Z,33.42
2018-02-25T01:33:57.670Z,33.46
2018-02-25T01:36:24.233Z,33.59
2018-02-25T01:38:50.010Z,33.14
2018-02-25T01:41:15.816Z,33.16
2018-02-25T01:43:41.625Z,33.31
2018-02-25T01:46:07.407Z,33.23
2018-02-25T01:48:33.222Z,33.07
2018-02-25T01:51:04.015Z,32.80
2018-02-25T01:53:29.870Z,33.76
2018-02-25T01:55:55.646Z,33.65
2018-02-25T01:58:21.457Z,33.45
2018-02-25T02:00:47.225Z,33.51
2018-02-25T02:03:13.045Z,34.13
2018-02-25T02:05:38.831Z,34.93
2018-02-25T02:08:04.615Z,33.54
2018-02-25T02:10:30.426Z,33.59
2018-02-25T02:12:56.197Z,34.15
2018-02-25T02:15:22.025Z,33.67
2018-02-25T02:17:47.798Z,33.03
2018-02-25T02:20:13.578Z,33.25
2018-02-25T02:22:39.359Z,33.97
2018-02-25T02:25:05.136Z,33.40
2018-02-25T02:27:30.926Z,33.67
2018-02-25T02:29:56.697Z,33.44
2018-02-25T02:32:23.498Z,33.24
2018-02-25T02:34:50.183Z,33.65
2018-02-25T02:37:15.990Z,33.29
2018-02-25T02:39:42.690Z,33.60
2018-02-25T02:42:08.501Z,33.43
2018-02-25T02:44:34.273Z,32.99
2018-02-25T02:47:00.041Z,32.94
2018-02-25T02:49:26.824Z,33.81
2018-02-25T02:51:52.598Z,33.36
2018-02-25T02:54:19.454Z,33.21
2018-02-25T02:56:46.199Z,33.40
2018-02-25T02:59:11.971Z,33.34
2018-02-25T03:01:38.686Z,34.07
2018-02-25T03:04:05.426Z,34.73
2018-02-25T03:06:32.159Z,33.64
2018-02-25T03:08:57.938Z,33.52
2018-02-25T03:11:23.754Z,33.84
2018-02-25T03:13:49.538Z,33.41
2018-02-25T03:16:16.198Z,34.65
2018-02-25T03:18:41.971Z,34.27
2018-02-25T03:21:08.661Z,34.31
2018-02-25T03:23:34.437Z,33.81
2018-02-25T03:26:00.214Z,33.57
2018-02-25T03:28:26.785Z,33.68
2018-02-25T03:30:52.555Z,33.82
2018-02-25T03:33:19.368Z,33.20
2018-02-25T03:35:45.185Z,33.30
2018-02-25T03:38:10.951Z,33.47
2018-02-25T03:40:36.729Z,33.53
2018-02-25T03:43:02.502Z,32.85
2018-02-25T03:45:29.209Z,33.15
2018-02-25T03:47:55.993Z,33.45
2018-02-25T03:50:21.766Z,33.08
2018-02-25T03:52:48.412Z,33.35
2018-02-25T03:55:15.130Z,33.16
2018-02-25T03:57:41.962Z,33.27
2018-02-25T04:00:07.788Z,33.61
2018-02-25T04:02:33.558Z,34.06
2018-02-25T04:05:00.315Z,34.44
2018-02-25T04:07:26.120Z,33.68
2018-02-25T04:09:51.902Z,33.46
2018-02-25T04:12:17.669Z,33.78
2018-02-25T04:14:43.433Z,33.20
2018-02-25T04:17:09.204Z,33.28
2018-02-25T04:19:34.968Z,33.76
2018-02-25T04:22:00.738Z,33.76
2018-02-25T04:24:27.446Z,33.47
2018-02-25T04:26:53.225Z,33.90
2018-02-25T04:29:19.001Z,33.26
2018-02-25T04:31:44.785Z,33.62
2018-02-25T04:34:10.606Z,33.75
2018-02-25T04:36:36.375Z,33.09
2018-02-25T04:39:02.171Z,33.07
2018-02-25T04:41:27.942Z,33.32
2018-02-25T04:43:54.747Z,33.08
2018-02-25T04:46:21.462Z,33.72
2018-02-25T04:48:47.236Z,33.60
2018-02-25T04:51:13.065Z,33.46
2018-02-25T04:53:38.926Z,33.19
2018-02-25T04:56:05.529Z,32.95
2018-02-25T04:58:31.970Z,33.04
2018-02-25T05:00:57.741Z,32.92
2018-02-25T05:03:23.546Z,32.91
2018-02-25T05:05:49.308Z,32.87
2018-02-25T05:08:15.113Z,33.33
2018-02-25T05:10:41.913Z,33.15
2018-02-25T05:13:08.689Z,33.42
2018-02-25T05:15:35.414Z,32.80
2018-02-25T05:18:01.220Z,32.98
2018-02-25T05:20:28.009Z,33.36
2018-02-25T05:22:53.777Z,33.18
2018-02-25T05:25:19.601Z,33.25
2018-02-25T05:27:45.383Z,32.69
2018-02-25T05:30:11.202Z,32.84
2018-02-25T05:32:36.976Z,32.90
2018-02-25T05:35:02.785Z,32.73
2018-02-25T05:37:29.538Z,32.69
2018-02-25T05:39:55.311Z,32.79
2018-02-25T05:42:21.078Z,33.28
2018-02-25T05:44:46.854Z,33.08
2018-02-25T05:47:12.666Z,32.93
2018-02-25T05:49:39.370Z,32.65
2018-02-25T05:52:05.183Z,32.86
2018-02-25T05:54:30.958Z,33.04
2018-02-25T05:56:56.801Z,33.55
2018-02-25T05:59:23.489Z,33.32
2018-02-25T06:01:49.309Z,33.40
2018-02-25T06:04:15.333Z,32.97
2018-02-25T06:06:41.933Z,33.51
2018-02-25T06:09:07.706Z,33.45
2018-02-25T06:11:33.485Z,33.11
2018-02-25T06:14:00.242Z,34.06
2018-02-25T06:16:26.993Z,33.22
2018-02-25T06:18:53.709Z,33.37
2018-02-25T06:21:19.530Z,33.16
2018-02-25T06:23:46.282Z,33.21
2018-02-25T06:26:13.077Z,33.60
2018-02-25T06:28:39.833Z,34.84
2018-02-25T06:31:06.525Z,33.76
2018-02-25T06:33:33.293Z,34.47
2018-02-25T06:36:00.009Z,33.27
2018-02-25T06:38:25.782Z,33.03
2018-02-25T06:40:52.362Z,33.34
2018-02-25T06:43:19.078Z,33.25
2018-02-25T06:45:44.870Z,33.35
2018-02-25T06:48:11.786Z,33.65
2018-02-25T06:50:38.606Z,33.13
2018-02-25T06:53:04.377Z,33.15
2018-02-25T06:55:30.146Z,33.74
2018-02-25T06:57:55.930Z,33.28
2018-02-25T07:00:28.787Z,33.37
2018-02-25T07:02:54.560Z,33.61
2018-02-25T07:05:20.370Z,33.81
2018-02-25T07:07:47.006Z,32.80
2018-02-25T07:10:12.830Z,33.58
2018-02-25T07:12:39.386Z,32.91
2018-02-25T07:15:05.198Z,32.93
2018-02-25T07:17:30.965Z,33.33
2018-02-25T07:19:56.738Z,32.71
2018-02-25T07:22:22.517Z,32.49
2018-02-25T07:24:48.299Z,33.18
2018-02-25T07:27:14.229Z,32.88
2018-02-25T07:29:40.002Z,32.85
2018-02-25T07:32:05.978Z,33.19
2018-02-25T07:34:31.757Z,32.48
2018-02-25T07:36:57.527Z,32.49
2018-02-25T07:39:23.374Z,32.65
2018-02-25T07:41:49.172Z,32.71
2018-02-25T07:44:15.065Z,32.52
2018-02-25T07:46:40.999Z,32.96
2018-02-25T07:49:06.929Z,33.26
2018-02-25T07:51:32.713Z,32.92
2018-02-25T07:53:58.523Z,33.15
2018-02-25T07:56:24.303Z,32.67
2018-02-25T07:58:50.082Z,33.00
2018-02-25T08:01:15.927Z,32.84
2018-02-25T08:03:41.709Z,32.44
2018-02-25T08:06:07.655Z,32.55
2018-02-25T08:08:33.585Z,32.59
2018-02-25T08:10:59.497Z,32.57
2018-02-25T08:13:25.275Z,32.40
2018-02-25T08:15:51.152Z,34.06
2018-02-25T08:18:17.115Z,32.60
2018-02-25T08:20:43.021Z,33.48
2018-02-25T08:23:08.947Z,33.22
2018-02-25T08:25:34.868Z,33.40
2018-02-25T08:28:00.760Z,32.79
2018-02-25T08:30:26.713Z,32.60
2018-02-25T08:32:52.686Z,32.18
2018-02-25T08:35:19.078Z,32.53
2018-02-25T08:37:45.674Z,32.44
2018-02-25T08:40:11.817Z,31.99
2018-02-25T08:42:37.928Z,31.67
2018-02-25T08:45:04.012Z,31.46
2018-02-25T08:47:30.645Z,31.08
2018-02-25T08:49:59.103Z,31.33
2018-02-25T08:52:25.906Z,31.10
2018-02-25T08:54:51.833Z,31.56
2018-02-25T08:57:17.940Z,31.57
2018-02-25T08:59:43.754Z,31.95
2018-02-25T09:02:09.600Z,31.31
2018-02-25T09:04:35.374Z,31.31
2018-02-25T09:07:01.243Z,31.37
2018-02-25T09:09:26.990Z,30.82
2018-02-25T09:11:52.765Z,30.70
2018-02-25T09:14:18.572Z,31.42
2018-02-25T09:16:44.514Z,32.92
2018-02-25T09:19:11.269Z,32.34
2018-02-25T09:21:37.175Z,31.47
2018-02-25T09:24:02.995Z,31.86
2018-02-25T09:26:29.699Z,31.94
2018-02-25T09:28:57.614Z,31.88
2018-02-25T09:31:23.561Z,32.71
2018-02-25T09:33:49.485Z,31.63
2018-02-25T09:36:15.324Z,31.29
2018-02-25T09:38:41.110Z,31.50
2018-02-25T09:41:06.913Z,31.79
2018-02-25T09:43:32.701Z,31.75
2018-02-25T09:45:58.578Z,31.77
2018-02-25T09:48:24.345Z,31.61
2018-02-25T09:50:51.345Z,31.30
2018-02-25T09:53:17.130Z,31.39
2018-02-25T09:55:43.106Z,32.34
2018-02-25T09:58:08.898Z,32.33
2018-02-25T10:00:35.659Z,31.00
2018-02-25T10:03:01.447Z,30.60
2018-02-25T10:05:27.254Z,30.56
2018-02-25T10:07:53.081Z,30.48
2018-02-25T10:10:18.894Z,30.17
2018-02-25T10:12:45.458Z,30.02
2018-02-25T10:15:12.251Z,29.89
2018-02-25T10:17:39.017Z,30.07
2018-02-25T10:20:04.790Z,29.98
2018-02-25T10:22:30.567Z,29.93
2018-02-25T10:24:57.328Z,30.10
2018-02-25T10:27:23.105Z,30.18
2018-02-25T10:29:48.920Z,30.34
2018-02-25T10:32:14.712Z,30.15
2018-02-25T10:34:40.534Z,29.50
2018-02-25T10:37:06.311Z,30.28
2018-02-25T10:39:32.101Z,29.25
2018-02-25T10:41:57.878Z,29.09
2018-02-25T10:44:23.804Z,29.19
2018-02-25T10:46:50.438Z,28.53
2018-02-25T10:49:16.225Z,28.10
2018-02-25T10:51:42.011Z,28.40
2018-02-25T10:54:07.828Z,28.32
2018-02-25T10:56:34.499Z,28.20
2018-02-25T10:59:00.283Z,27.78
2018-02-25T11:01:26.249Z,27.71
2018-02-25T11:03:52.035Z,27.62
2018-02-25T11:06:17.875Z,27.79
2018-02-25T11:08:43.657Z,28.53
2018-02-25T11:11:09.473Z,27.83
2018-02-25T11:13:35.247Z,28.08
2018-02-25T11:16:01.030Z,28.13
2018-02-25T11:18:26.806Z,28.20
2018-02-25T11:20:52.590Z,27.75
2018-02-25T11:23:18.412Z,28.07
2018-02-25T11:25:44.193Z,27.58
2018-02-25T11:28:10.018Z,27.77
2018-02-25T11:30:35.798Z,27.67
2018-02-25T11:33:01.578Z,27.89
2018-02-25T11:35:27.362Z,27.90
2018-02-25T11:37:53.150Z,27.97
2018-02-25T11:40:18.932Z,28.15
2018-02-25T11:42:44.753Z,27.97
2018-02-25T11:45:11.522Z,28.36
2018-02-25T11:47:37.339Z,28.23
2018-02-25T11:50:03.246Z,28.32
2018-02-25T11:52:29.039Z,28.72
2018-02-25T11:54:54.886Z,28.49
2018-02-25T11:57:20.846Z,28.42
2018-02-25T11:59:46.630Z,28.44
2018-02-25T12:02:12.417Z,28.53
2018-02-25T12:04:38.374Z,28.54
2018-02-25T12:07:04.998Z,28.57
2018-02-25T12:09:30.780Z,28.54
2018-02-25T12:11:56.605Z,28.82
2018-02-25T12:14:22.385Z,28.78
2018-02-25T12:16:48.165Z,28.56
2018-02-25T12:19:14.815Z,28.62
2018-02-25T12:21:40.600Z,28.59
2018-02-25T12:24:07.400Z,28.62
2018-02-25T12:26:33.178Z,29.11
2018-02-25T12:28:59.003Z,28.49
2018-02-25T12:31:25.799Z,28.13
2018-02-25T12:33:52.558Z,28.56
2018-02-25T12:36:18.698Z,29.08
2018-02-25T12:38:45.318Z,29.01
2018-02-25T12:41:12.174Z,28.75
2018-02-25T12:43:38.934Z,29.20
2018-02-25T12:46:04.813Z,28.77
2018-02-25T12:48:30.587Z,28.68
2018-02-25T12:50:56.399Z,29.10
2018-02-25T12:53:22.166Z,28.64
2018-02-25T12:55:48.706Z,28.56
2018-02-25T12:58:14.497Z,28.55
2018-02-25T13:00:40.273Z,28.91
2018-02-25T13:03:06.047Z,28.45
2018-02-25T13:05:31.925Z,29.00
2018-02-25T13:07:57.738Z,28.43
2018-02-25T13:10:24.342Z,28.36
2018-02-25T13:12:51.073Z,28.39
2018-02-25T13:15:17.626Z,28.48
2018-02-25T13:17:43.399Z,28.55
2018-02-25T13:20:09.181Z,28.80
2018-02-25T13:22:34.997Z,29.08
2018-02-25T13:25:01.766Z,28.94
2018-02-25T13:27:28.514Z,29.01
2018-02-25T13:29:55.241Z,28.92
2018-02-25T13:32:21.026Z,28.67
2018-02-25T13:34:47.766Z,28.67
2018-02-25T13:37:14.476Z,28.93
2018-02-25T13:39:41.239Z,28.74
2018-02-25T13:42:07.067Z,29.19
2018-02-25T13:44:32.846Z,29.18
2018-02-25T13:46:58.637Z,29.08
2018-02-25T13:49:24.413Z,29.07
2018-02-25T13:51:50.183Z,28.75
2018-02-25T13:54:15.984Z,29.14
2018-02-25T13:56:41.765Z,29.66
2018-02-25T13:59:07.542Z,28.99
2018-02-25T14:01:33.323Z,29.36
2018-02-25T14:03:59.107Z,28.84
2018-02-25T14:06:24.887Z,28.89
2018-02-25T14:08:51.741Z,28.89
2018-02-25T14:11:18.454Z,29.05
2018-02-25T14:13:44.261Z,28.99
2018-02-25T14:16:10.037Z,28.96
2018-02-25T14:18:35.815Z,28.94
2018-02-25T14:21:02.435Z,29.13
2018-02-25T14:23:28.211Z,29.07
2018-02-25T14:25:53.993Z,29.65
2018-02-25T14:28:20.556Z,29.32
2018-02-25T14:30:46.339Z,29.11
2018-02-25T14:33:12.143Z,29.05
2018-02-25T14:35:37.924Z,28.86
2018-02-25T14:38:03.723Z,29.51
2018-02-25T14:40:29.547Z,29.24
2018-02-25T14:42:55.330Z,29.21
2018-02-25T14:45:21.110Z,29.44
2018-02-25T14:47:46.886Z,29.39
2018-02-25T14:50:12.664Z,29.31
2018-02-25T14:52:39.362Z,29.06
2018-02-25T14:55:05.150Z,29.29
2018-02-25T14:57:30.958Z,29.70
2018-02-25T14:59:57.602Z,29.67
2018-02-25T15:02:23.378Z,29.33
2018-02-25T15:04:49.162Z,30.03
2018-02-25T15:07:14.949Z,29.62
2018-02-25T15:09:40.773Z,29.84
2018-02-25T15:12:06.718Z,29.81
2018-02-25T15:14:33.328Z,29.83
2018-02-25T15:16:59.155Z,30.07
2018-02-25T15:19:24.963Z,30.21
2018-02-25T15:21:50.792Z,30.27
2018-02-25T15:24:16.579Z,30.14
2018-02-25T15:26:43.234Z,30.48
2018-02-25T15:29:09.055Z,31.41
2018-02-25T15:31:34.879Z,30.17
2018-02-25T15:34:01.531Z,30.24
2018-02-25T15:36:27.322Z,30.53
2018-02-25T15:38:53.138Z,31.05
2018-02-25T15:41:18.954Z,30.93
2018-02-25T15:43:45.616Z,30.59
2018-02-25T15:46:11.445Z,30.60
2018-02-25T15:48:37.234Z,30.42
2018-02-25T15:51:03.851Z,32.08
2018-02-25T15:53:29.638Z,30.40
2018-02-25T15:55:55.493Z,30.83
2018-02-25T15:58:21.289Z,31.31
2018-02-25T16:00:47.121Z,31.16
2018-02-25T16:03:13.909Z,31.09
2018-02-25T16:05:39.732Z,30.92
2018-02-25T16:08:05.514Z,30.67
2018-02-25T16:10:31.295Z,30.86
2018-02-25T16:12:58.014Z,31.23
2018-02-25T16:15:23.795Z,31.78
2018-02-25T16:17:50.516Z,31.16
2018-02-25T16:20:16.307Z,32.36
2018-02-25T16:22:42.097Z,32.27
2018-02-25T16:25:07.886Z,31.44
2018-02-25T16:27:33.708Z,31.68
2018-02-25T16:29:59.553Z,31.24
2018-02-25T16:32:25.373Z,32.36
2018-02-25T16:34:51.204Z,31.69
2018-02-25T16:37:17.047Z,31.92
2018-02-25T16:39:42.938Z,31.48
2018-02-25T16:42:08.742Z,31.40
2018-02-25T16:44:34.691Z,31.71
2018-02-25T16:47:00.477Z,32.63
2018-02-25T16:49:26.291Z,31.71
2018-02-25T16:51:52.290Z,32.13
2018-02-25T16:54:18.118Z,31.73
2018-02-25T16:56:43.922Z,32.03
2018-02-25T16:59:09.701Z,32.01
2018-02-25T17:01:35.483Z,32.42
2018-02-25T17:04:02.150Z,32.38
2018-02-25T17:06:28.895Z,31.87
2018-02-25T17:08:54.714Z,31.96
2018-02-25T17:11:20.494Z,32.12
2018-02-25T17:13:46.378Z,32.24
2018-02-25T17:16:12.159Z,32.65
2018-02-25T17:18:37.992Z,32.27
2018-02-25T17:21:03.932Z,32.49
2018-02-25T17:23:29.845Z,32.88
2018-02-25T17:25:55.766Z,32.40
2018-02-25T17:28:21.554Z,32.25
2018-02-25T17:30:47.349Z,32.37
2018-02-25T17:33:13.462Z,32.22
2018-02-25T17:35:39.241Z,31.83
2018-02-25T17:38:05.021Z,32.26
2018-02-25T17:40:30.801Z,31.98
2018-02-25T17:42:56.598Z,31.90
2018-02-25T17:45:22.382Z,32.25
2018-02-25T17:47:48.263Z,32.41
2018-02-25T17:50:14.958Z,32.50
2018-02-25T17:52:40.738Z,33.16
2018-02-25T17:55:06.518Z,33.23
2018-02-25T17:57:32.306Z,33.45
2018-02-25T17:59:58.099Z,33.32
2018-02-25T18:02:24.000Z,32.28
2018-02-25T18:04:49.781Z,32.44
2018-02-25T18:07:15.557Z,31.95
2018-02-25T18:09:41.334Z,31.95
2018-02-25T18:12:07.132Z,32.16
2018-02-25T18:14:32.918Z,32.49
2018-02-25T18:16:58.802Z,32.49
2018-02-25T18:19:26.233Z,32.26
2018-02-25T18:21:52.055Z,32.36
2018-02-25T18:24:17.831Z,32.48
2018-02-25T18:26:43.610Z,32.51
2018-02-25T18:29:09.394Z,32.56
2018-02-25T18:31:42.052Z,32.16
2018-02-25T18:34:14.733Z,32.70
2018-02-25T18:36:49.401Z,32.74
2018-02-25T18:39:15.566Z,33.13
2018-02-25T18:41:42.746Z,32.75
2018-02-25T18:44:11.233Z,33.94
2018-02-25T18:46:40.259Z,33.83
2018-02-25T18:49:12.117Z,33.05
2018-02-25T18:51:37.989Z,33.02
2018-02-25T18:54:14.196Z,32.95
2018-02-25T18:56:40.146Z,33.14
2018-02-25T18:59:05.957Z,33.93
2018-02-25T19:01:32.814Z,33.31
2018-02-25T19:03:58.769Z,33.51
2018-02-25T19:06:25.774Z,33.75
2018-02-25T19:08:51.812Z,33.68
2018-02-25T19:11:17.668Z,33.43
2018-02-25T19:13:43.662Z,33.29
2018-02-25T19:16:09.580Z,33.29
2018-02-25T19:18:35.454Z,33.57
2018-02-25T19:21:01.464Z,33.95
2018-02-25T19:23:28.005Z,33.31
2018-02-25T19:25:54.072Z,34.54
2018-02-25T19:28:20.249Z,33.33
2018-02-25T19:30:46.227Z,33.88
2018-02-25T19:33:12.192Z,34.27
2018-02-25T19:35:45.074Z,34.30
2018-02-25T19:38:17.246Z,34.11
2018-02-25T19:40:49.244Z,33.79
2018-02-25T19:43:15.234Z,33.50
2018-02-25T19:45:41.015Z,33.95
2018-02-25T19:48:06.969Z,34.36
2018-02-25T19:50:32.867Z,34.06
2018-02-25T19:52:58.830Z,33.45
2018-02-25T19:55:24.705Z,33.45
2018-02-25T19:57:50.563Z,33.54
2018-02-25T20:00:16.374Z,33.42
2018-02-25T20:02:42.361Z,33.43
2018-02-25T20:05:08.142Z,33.51
2018-02-25T20:07:34.219Z,33.61
2018-02-25T20:10:00.134Z,33.14
2018-02-25T20:12:25.914Z,33.46
2018-02-25T20:14:51.741Z,34.15
2018-02-25T20:17:17.515Z,33.92
2018-02-25T20:19:43.453Z,33.62
2018-02-25T20:22:09.334Z,33.09
2018-02-25T20:24:35.115Z,33.30
2018-02-25T20:27:01.857Z,33.10
2018-02-25T20:29:27.642Z,33.95
2018-02-25T20:31:53.419Z,33.70
2018-02-25T20:34:19.353Z,34.18
2018-02-25T20:36:46.281Z,33.68
2018-02-25T20:39:13.093Z,33.72
2018-02-25T20:41:38.942Z,34.14
2018-02-25T20:44:04.738Z,34.53
2018-02-25T20:46:30.549Z,33.83
2018-02-25T20:48:56.326Z,33.42
2018-02-25T20:51:22.099Z,33.34
2018-02-25T20:53:47.873Z,33.51
2018-02-25T20:56:13.664Z,33.71
2018-02-25T20:58:39.475Z,33.85
2018-02-25T21:01:05.477Z,34.06
2018-02-25T21:03:31.391Z,34.05
2018-02-25T21:05:57.191Z,33.95
2018-02-25T21:08:22.974Z,34.52
2018-02-25T21:10:48.897Z,34.02
2018-02-25T21:13:14.702Z,34.52
2018-02-25T21:15:40.482Z,34.74
2018-02-25T21:18:06.261Z,33.83
2018-02-25T21:20:32.034Z,34.01
2018-02-25T21:22:59.407Z,34.12
2018-02-25T21:25:25.258Z,34.92
2018-02-25T21:27:51.034Z,34.93
2018-02-25T21:30:17.006Z,34.91
2018-02-25T21:32:43.621Z,34.33
2018-02-25T21:35:09.735Z,34.36
2018-02-25T21:37:35.522Z,34.32
2018-02-25T21:40:02.326Z,34.95
2018-02-25T21:42:28.259Z,34.78
2018-02-25T21:44:54.034Z,34.90
2018-02-25T21:47:19.812Z,34.46
2018-02-25T21:49:45.582Z,34.95
2018-02-25T21:52:12.385Z,34.38
2018-02-25T21:54:44.319Z,34.38
2018-02-25T21:57:16.238Z,34.68
2018-02-25T21:59:48.157Z,34.47
2018-02-25T22:02:20.148Z,34.38
2018-02-25T22:04:45.922Z,34.59
2018-02-25T22:07:11.742Z,34.71
2018-02-25T22:09:37.553Z,34.40
2018-02-25T22:12:04.335Z,34.65
2018-02-25T22:14:30.198Z,34.48
2018-02-25T22:16:56.150Z,34.89
2018-02-25T22:19:21.927Z,34.56
2018-02-25T22:21:47.714Z,34.68
2018-02-25T22:24:13.835Z,34.40
2018-02-25T22:26:39.613Z,34.52
2018-02-25T22:29:05.582Z,34.22
2018-02-25T22:31:31.358Z,34.28
2018-02-25T22:33:57.125Z,34.59
2018-02-25T22:36:22.939Z,34.71
2018-02-25T22:38:48.720Z,34.61
2018-02-25T22:41:14.495Z,34.56
2018-02-25T22:43:40.276Z,34.63
2018-02-25T22:46:06.184Z,34.31
2018-02-25T22:48:31.961Z,34.62
2018-02-25T22:50:57.743Z,34.53
2018-02-25T22:53:23.519Z,34.47
2018-02-25T22:55:49.295Z,35.66
2018-02-25T22:58:15.065Z,34.58
2018-02-25T23:00:40.854Z,35.07
2018-02-25T23:03:06.763Z,34.35
2018-02-25T23:05:32.537Z,34.58
2018-02-25T23:07:58.408Z,34.60
2018-02-25T23:10:24.195Z,34.69
2018-02-25T23:12:49.969Z,34.54
2018-02-25T23:15:15.746Z,34.44
2018-02-25T23:20:21.006Z,34.81
2018-02-25T23:22:46.913Z,34.57
2018-02-25T23:25:12.826Z,34.67
2018-02-25T23:27:38.746Z,34.36
2018-02-25T23:30:05.540Z,34.66
2018-02-25T23:32:32.351Z,34.57
2018-02-25T23:34:58.124Z,34.71
2018-02-25T23:37:24.868Z,34.58
2018-02-25T23:39:51.602Z,35.01
2018-02-25T23:42:18.591Z,35.44
2018-02-25T23:44:44.411Z,34.83
2018-02-25T23:47:10.322Z,35.12
2018-02-25T23:49:36.112Z,35.29
2018-02-25T23:52:02.835Z,34.92
2018-02-25T23:54:28.615Z,35.32
2018-02-25T23:56:54.556Z,34.68
2018-02-25T23:59:20.442Z,34.89
